Time;durP1;ratioP1;P1;durP2;ratioP2;P2;SDS_P1;SDS_P2;PMS_P1;PMS_P2;Temp;Humidity;BMP_temperature;BMP_pressure;BME280_temperature;BME280_humidity;BME280_pressure;Samples;Min_cycle;Max_cycle;Signal;HPM_P1;HPM_P2
2021/12/02 00:01:36;;;;;;;;;;;20.20;36.60;;;;;;478604;248;1231;-46
2021/12/02 00:03:37;;;;;;;;;;;20.20;36.70;;;;;;478492;249;1251;-46
2021/12/02 00:05:38;;;;;;;;;;;20.20;36.60;;;;;;478380;249;1060;-46
2021/12/02 00:07:39;;;;;;;;;;;20.20;36.50;;;;;;478340;249;1231;-46
2021/12/02 00:09:41;;;;;;;;;;;20.30;36.60;;;;;;478368;249;1184;-46
2021/12/02 00:11:42;;;;;;;;;;;20.30;36.60;;;;;;478394;248;1223;-46
2021/12/02 00:13:52;;;;;;;;;;;20.30;36.60;;;;;;478779;249;2201;-46
2021/12/02 00:15:51;;;;;;;;;;;20.30;36.60;;;;;;478198;248;2227;-46
2021/12/02 00:17:54;;;;;;;;;;;20.30;36.60;;;;;;478078;248;2176;-46
2021/12/02 00:22:08;;;;;;;;;;;20.30;36.60;;;;;;478359;248;1230;-46
2021/12/02 00:24:09;;;;;;;;;;;20.30;36.50;;;;;;478776;249;1069;-46
2021/12/02 00:26:10;;;;;;;;;;;20.30;36.60;;;;;;478250;249;1499;-46
2021/12/02 00:28:12;;;;;;;;;;;20.30;36.50;;;;;;478298;249;1160;-46
2021/12/02 00:30:13;;;;;;;;;;;20.30;36.50;;;;;;478502;248;962;-46
2021/12/02 00:32:14;;;;;;;;;;;20.30;36.50;;;;;;478772;249;1298;-46
2021/12/02 00:34:16;;;;;;;;;;;20.30;36.60;;;;;;478411;249;2120;-46
2021/12/02 00:36:17;;;;;;;;;;;20.30;36.60;;;;;;478634;249;1229;-46
2021/12/02 00:38:18;;;;;;;;;;;20.30;36.60;;;;;;478762;249;1326;-46
2021/12/02 00:40:20;;;;;;;;;;;20.30;36.60;;;;;;478727;249;1128;-46
2021/12/02 00:42:21;;;;;;;;;;;20.20;36.60;;;;;;478521;249;1312;-46
2021/12/02 00:44:22;;;;;;;;;;;20.20;36.60;;;;;;478365;249;1113;-46
2021/12/02 00:46:24;;;;;;;;;;;20.30;36.60;;;;;;478442;249;1267;-46
2021/12/02 00:48:25;;;;;;;;;;;20.30;36.60;;;;;;478593;249;1305;-46
2021/12/02 00:50:26;;;;;;;;;;;20.30;36.60;;;;;;478535;248;1287;-46
2021/12/02 00:52:27;;;;;;;;;;;20.30;36.60;;;;;;478303;249;2140;-46
2021/12/02 00:54:29;;;;;;;;;;;20.20;36.60;;;;;;478388;249;1076;-46
2021/12/02 00:56:30;;;;;;;;;;;20.30;36.70;;;;;;478613;249;1307;-46
2021/12/02 00:58:32;;;;;;;;;;;20.30;36.60;;;;;;478400;249;1041;-46
2021/12/02 01:00:33;;;;;;;;;;;20.30;36.60;;;;;;478353;248;1261;-46
2021/12/02 01:02:34;;;;;;;;;;;20.30;36.60;;;;;;478343;249;1193;-46
2021/12/02 01:04:35;;;;;;;;;;;20.20;36.60;;;;;;478362;249;1086;-46
2021/12/02 01:06:37;;;;;;;;;;;20.30;36.60;;;;;;478331;249;1297;-46
2021/12/02 01:08:39;;;;;;;;;;;20.30;36.70;;;;;;478755;248;982;-46
2021/12/02 01:10:39;;;;;;;;;;;20.30;36.70;;;;;;478277;249;2509;-46
2021/12/02 01:12:41;;;;;;;;;;;20.30;36.60;;;;;;478318;249;2139;-46
2021/12/02 01:14:42;;;;;;;;;;;20.30;36.70;;;;;;478814;248;1083;-46
2021/12/02 01:16:43;;;;;;;;;;;20.20;36.60;;;;;;478571;249;1108;-46
2021/12/02 01:18:45;;;;;;;;;;;20.20;36.60;;;;;;478399;248;1144;-46
2021/12/02 01:20:46;;;;;;;;;;;20.30;36.70;;;;;;478625;249;1274;-46
2021/12/02 01:22:47;;;;;;;;;;;20.30;36.70;;;;;;478269;249;1274;-46
2021/12/02 01:24:49;;;;;;;;;;;20.20;36.70;;;;;;478508;249;1236;-46
2021/12/02 01:26:50;;;;;;;;;;;20.30;36.70;;;;;;478593;249;1071;-46
2021/12/02 01:28:52;;;;;;;;;;;20.30;36.70;;;;;;478386;248;1580;-46
2021/12/02 01:30:53;;;;;;;;;;;20.30;36.60;;;;;;478320;249;1214;-46
2021/12/02 01:32:54;;;;;;;;;;;20.30;36.60;;;;;;478305;249;2273;-46
2021/12/02 01:34:55;;;;;;;;;;;20.30;36.60;;;;;;478435;248;1175;-46
2021/12/02 01:36:57;;;;;;;;;;;20.30;36.60;;;;;;478369;249;1270;-46
2021/12/02 01:38:59;;;;;;;;;;;20.30;36.60;;;;;;478887;248;972;-46
2021/12/02 01:41:00;;;;;;;;;;;20.30;36.70;;;;;;478404;249;1218;-46
2021/12/02 01:43:01;;;;;;;;;;;20.30;36.60;;;;;;478352;249;1253;-47
2021/12/02 01:45:02;;;;;;;;;;;20.30;36.60;;;;;;478573;249;1068;-46
2021/12/02 01:47:04;;;;;;;;;;;20.30;36.60;;;;;;478477;249;1361;-46
2021/12/02 01:49:05;;;;;;;;;;;20.30;36.70;;;;;;478616;248;1284;-46
2021/12/02 01:51:06;;;;;;;;;;;20.30;36.70;;;;;;478275;249;1452;-47
2021/12/02 01:53:08;;;;;;;;;;;20.30;36.70;;;;;;478356;249;2131;-46
2021/12/02 01:55:09;;;;;;;;;;;20.20;36.70;;;;;;478402;248;989;-46
2021/12/02 01:57:10;;;;;;;;;;;20.30;36.70;;;;;;478772;249;1183;-46
2021/12/02 01:59:12;;;;;;;;;;;20.30;36.70;;;;;;478678;249;1171;-46
2021/12/02 02:01:13;;;;;;;;;;;20.30;36.70;;;;;;478340;248;1249;-46
2021/12/02 02:03:14;;;;;;;;;;;20.30;36.70;;;;;;478849;248;1065;-46
2021/12/02 02:05:16;;;;;;;;;;;20.20;36.70;;;;;;478385;249;1233;-46
2021/12/02 02:07:17;;;;;;;;;;;20.20;36.80;;;;;;478255;249;1173;-46
2021/12/02 02:09:18;;;;;;;;;;;20.30;36.80;;;;;;478787;248;1334;-46
2021/12/02 02:11:20;;;;;;;;;;;20.30;36.80;;;;;;478368;249;1362;-46
2021/12/02 02:13:21;;;;;;;;;;;20.30;36.80;;;;;;478729;249;2210;-46
2021/12/02 02:15:22;;;;;;;;;;;20.20;36.70;;;;;;478270;249;1329;-46
2021/12/02 02:17:26;;;;;;;;;;;20.30;36.70;;;;;;478588;248;1310;-46
2021/12/02 02:19:29;;;;;;;;;;;20.30;36.70;;;;;;478475;248;1404;-46
2021/12/02 02:21:26;;;;;;;;;;;20.30;36.80;;;;;;478236;248;2077;-46
2021/12/02 02:23:29;;;;;;;;;;;20.20;36.80;;;;;;478534;249;1200;-46
2021/12/02 02:25:29;;;;;;;;;;;20.30;36.70;;;;;;478603;248;2370;-46
2021/12/02 02:27:30;;;;;;;;;;;20.30;36.70;;;;;;478364;249;1353;-46
2021/12/02 02:29:31;;;;;;;;;;;20.30;36.70;;;;;;478675;249;1038;-46
2021/12/02 02:31:33;;;;;;;;;;;20.40;36.50;;;;;;478557;249;1251;-46
2021/12/02 02:33:37;;;;;;;;;;;20.70;36.20;;;;;;478620;248;2135;-46
2021/12/02 02:35:37;;;;;;;;;;;20.80;35.80;;;;;;478246;249;2353;-47
2021/12/02 02:37:38;;;;;;;;;;;20.90;35.60;;;;;;478293;249;1181;-46
2021/12/02 02:39:40;;;;;;;;;;;21.00;35.40;;;;;;478512;249;1030;-47
2021/12/02 02:41:44;;;;;;;;;;;21.10;35.20;;;;;;478324;249;1215;-46
2021/12/02 02:43:43;;;;;;;;;;;21.20;35.10;;;;;;478557;248;2181;-46
2021/12/02 02:45:44;;;;;;;;;;;21.30;35.00;;;;;;478329;249;2927;-46
2021/12/02 02:47:45;;;;;;;;;;;21.30;34.90;;;;;;478742;249;1163;-46
2021/12/02 02:49:46;;;;;;;;;;;21.40;34.90;;;;;;478359;249;1503;-47
2021/12/02 02:51:48;;;;;;;;;;;21.40;34.80;;;;;;478499;249;1372;-46
2021/12/02 02:53:50;;;;;;;;;;;21.40;34.70;;;;;;478352;249;2179;-47
2021/12/02 02:55:59;;;;;;;;;;;21.50;34.70;;;;;;478749;249;2304;-46
2021/12/02 02:58:01;;;;;;;;;;;21.50;34.60;;;;;;478008;248;2200;-46
2021/12/02 03:00:02;;;;;;;;;;;21.50;34.50;;;;;;477787;249;2285;-46
2021/12/02 03:02:06;;;;;;;;;;;21.60;34.50;;;;;;478514;249;2455;-46
2021/12/02 03:04:12;;;;;;;;;;;21.60;34.50;;;;;;478429;248;2343;-46
2021/12/02 03:06:27;;;;;;;;;;;21.70;34.40;;;;;;478047;248;2222;-46
2021/12/02 03:08:32;;;;;;;;;;;21.70;34.40;;;;;;478221;248;1375;-46
2021/12/02 03:10:32;;;;;;;;;;;21.70;34.30;;;;;;477766;249;1909;-46
2021/12/02 03:12:30;;;;;;;;;;;21.80;34.30;;;;;;478023;248;2156;-47
2021/12/02 03:14:33;;;;;;;;;;;21.80;34.30;;;;;;478163;249;2215;-46
2021/12/02 03:16:46;;;;;;;;;;;21.80;34.30;;;;;;478094;249;2388;-46
2021/12/02 03:18:47;;;;;;;;;;;21.80;34.30;;;;;;478321;249;1436;-47
2021/12/02 03:20:48;;;;;;;;;;;21.80;34.20;;;;;;478351;249;1230;-46
2021/12/02 03:22:49;;;;;;;;;;;21.80;34.20;;;;;;478349;249;1070;-46
2021/12/02 03:24:51;;;;;;;;;;;21.90;34.20;;;;;;478804;249;1055;-46
2021/12/02 03:26:52;;;;;;;;;;;21.90;34.10;;;;;;478766;249;1092;-47
2021/12/02 03:28:53;;;;;;;;;;;21.90;34.10;;;;;;478348;249;1113;-46
2021/12/02 03:30:55;;;;;;;;;;;21.90;34.10;;;;;;478368;249;1013;-46
2021/12/02 03:32:56;;;;;;;;;;;22.00;34.10;;;;;;478337;249;1003;-46
2021/12/02 03:34:57;;;;;;;;;;;22.00;34.10;;;;;;478488;249;2191;-46
2021/12/02 03:36:59;;;;;;;;;;;22.00;34.10;;;;;;478312;249;1081;-47
2021/12/02 03:39:00;;;;;;;;;;;22.00;34.10;;;;;;478320;249;1113;-47
2021/12/02 03:41:01;;;;;;;;;;;22.00;34.00;;;;;;478650;248;1033;-47
2021/12/02 03:43:03;;;;;;;;;;;22.00;34.00;;;;;;478241;249;1181;-46
2021/12/02 03:45:04;;;;;;;;;;;22.00;34.00;;;;;;478553;248;1062;-47
2021/12/02 03:47:05;;;;;;;;;;;22.00;34.00;;;;;;478295;248;1291;-47
2021/12/02 03:49:06;;;;;;;;;;;22.10;34.00;;;;;;478717;248;1074;-47
2021/12/02 03:51:08;;;;;;;;;;;22.10;34.00;;;;;;478253;249;1230;-47
2021/12/02 03:53:09;;;;;;;;;;;22.10;34.00;;;;;;478715;248;1329;-47
2021/12/02 03:55:10;;;;;;;;;;;22.10;34.00;;;;;;478801;248;2198;-47
2021/12/02 03:57:12;;;;;;;;;;;22.10;33.90;;;;;;478731;249;1237;-46
2021/12/02 03:59:14;;;;;;;;;;;22.10;33.90;;;;;;478757;249;1086;-46
2021/12/02 04:01:14;;;;;;;;;;;22.20;34.00;;;;;;478485;249;2097;-47
2021/12/02 04:03:16;;;;;;;;;;;22.10;33.90;;;;;;478693;249;1173;-46
2021/12/02 04:05:17;;;;;;;;;;;22.20;33.90;;;;;;478583;249;1182;-47
2021/12/02 04:07:20;;;;;;;;;;;22.20;33.90;;;;;;478515;249;1188;-46
2021/12/02 04:09:21;;;;;;;;;;;22.20;33.90;;;;;;478682;248;2374;-47
2021/12/02 04:11:27;;;;;;;;;;;22.20;33.90;;;;;;478444;248;2376;-47
2021/12/02 04:13:28;;;;;;;;;;;22.20;33.90;;;;;;478361;248;2354;-47
2021/12/02 04:15:29;;;;;;;;;;;22.20;33.90;;;;;;478357;248;2325;-47
2021/12/02 04:17:41;;;;;;;;;;;22.20;33.90;;;;;;478304;248;2206;-47
2021/12/02 04:19:40;;;;;;;;;;;22.20;33.80;;;;;;478549;248;2182;-47
2021/12/02 04:21:41;;;;;;;;;;;22.20;33.80;;;;;;478317;249;1257;-47
2021/12/02 04:23:42;;;;;;;;;;;22.20;33.80;;;;;;478311;249;1217;-46
2021/12/02 04:25:44;;;;;;;;;;;22.30;33.90;;;;;;478317;249;1259;-47
2021/12/02 04:27:45;;;;;;;;;;;22.30;33.80;;;;;;478531;248;1237;-47
2021/12/02 04:29:46;;;;;;;;;;;22.30;33.80;;;;;;478678;248;1024;-47
2021/12/02 04:31:48;;;;;;;;;;;22.30;33.80;;;;;;478266;249;1158;-46
2021/12/02 04:33:49;;;;;;;;;;;22.30;33.80;;;;;;478374;248;2202;-47
2021/12/02 04:35:52;;;;;;;;;;;22.30;33.80;;;;;;478602;248;1265;-46
2021/12/02 04:37:52;;;;;;;;;;;22.30;33.80;;;;;;478331;248;2055;-46
2021/12/02 04:39:53;;;;;;;;;;;22.30;33.80;;;;;;478405;248;1405;-47
2021/12/02 04:41:54;;;;;;;;;;;22.30;33.80;;;;;;478268;249;1251;-46
2021/12/02 04:43:55;;;;;;;;;;;22.30;33.80;;;;;;478317;249;1070;-46
2021/12/02 04:45:57;;;;;;;;;;;22.40;33.80;;;;;;478517;249;1384;-47
2021/12/02 04:47:58;;;;;;;;;;;22.40;33.80;;;;;;478432;249;1064;-47
2021/12/02 04:49:59;;;;;;;;;;;22.40;33.80;;;;;;478776;249;1100;-46
2021/12/02 04:52:01;;;;;;;;;;;22.40;33.80;;;;;;478302;249;1462;-46
2021/12/02 04:54:02;;;;;;;;;;;22.40;33.80;;;;;;478601;249;2119;-47
2021/12/02 04:56:03;;;;;;;;;;;22.40;33.80;;;;;;478719;249;1327;-46
2021/12/02 04:58:05;;;;;;;;;;;22.40;33.80;;;;;;478426;249;1058;-47
2021/12/02 05:00:06;;;;;;;;;;;22.40;33.80;;;;;;478361;249;1072;-46
2021/12/02 05:02:07;;;;;;;;;;;22.40;33.80;;;;;;478519;249;1186;-46
2021/12/02 05:04:09;;;;;;;;;;;22.40;33.80;;;;;;478729;249;1044;-46
2021/12/02 05:06:10;;;;;;;;;;;22.50;33.80;;;;;;478314;249;1254;-47
2021/12/02 05:08:12;;;;;;;;;;;22.40;33.70;;;;;;478331;249;1059;-46
2021/12/02 05:10:13;;;;;;;;;;;22.40;33.70;;;;;;478697;249;1051;-47
2021/12/02 05:12:14;;;;;;;;;;;22.50;33.80;;;;;;478706;249;1487;-47
2021/12/02 05:14:16;;;;;;;;;;;22.50;33.80;;;;;;478727;249;2156;-47
2021/12/02 05:16:17;;;;;;;;;;;22.50;33.70;;;;;;478649;249;1761;-47
2021/12/02 05:18:18;;;;;;;;;;;22.50;33.70;;;;;;478524;249;1102;-47
2021/12/02 05:20:20;;;;;;;;;;;22.50;33.70;;;;;;478272;249;1062;-47
2021/12/02 05:22:21;;;;;;;;;;;22.60;33.70;;;;;;478236;249;1202;-47
2021/12/02 05:24:22;;;;;;;;;;;22.50;33.70;;;;;;478228;249;1232;-47
2021/12/02 05:26:23;;;;;;;;;;;22.50;33.70;;;;;;478218;249;1312;-46
2021/12/02 05:28:25;;;;;;;;;;;22.50;33.70;;;;;;478657;249;1062;-46
2021/12/02 05:30:26;;;;;;;;;;;22.60;33.70;;;;;;478670;249;1067;-47
2021/12/02 05:32:30;;;;;;;;;;;22.50;33.70;;;;;;478339;248;1248;-47
2021/12/02 05:34:29;;;;;;;;;;;22.60;33.70;;;;;;478234;248;2390;-47
2021/12/02 05:36:31;;;;;;;;;;;22.60;33.70;;;;;;478400;249;1355;-47
2021/12/02 05:38:32;;;;;;;;;;;22.60;33.70;;;;;;478628;249;1206;-47
2021/12/02 05:40:33;;;;;;;;;;;22.60;33.70;;;;;;478188;249;1102;-46
2021/12/02 05:42:35;;;;;;;;;;;22.60;33.70;;;;;;478101;249;1149;-47
2021/12/02 05:44:36;;;;;;;;;;;22.60;33.70;;;;;;478243;249;1083;-46
2021/12/02 05:46:38;;;;;;;;;;;22.60;33.70;;;;;;478288;249;1230;-47
2021/12/02 05:48:40;;;;;;;;;;;22.60;33.70;;;;;;478272;248;1089;-46
2021/12/02 05:50:41;;;;;;;;;;;22.60;33.70;;;;;;478189;249;2486;-47
2021/12/02 05:52:42;;;;;;;;;;;22.60;33.60;;;;;;478149;248;1208;-46
2021/12/02 05:54:43;;;;;;;;;;;22.60;33.60;;;;;;478153;248;2179;-47
2021/12/02 05:56:45;;;;;;;;;;;22.70;33.70;;;;;;478171;249;1404;-46
2021/12/02 05:58:46;;;;;;;;;;;22.70;33.70;;;;;;478658;249;1084;-46
2021/12/02 06:00:47;;;;;;;;;;;22.60;33.60;;;;;;478108;249;1209;-47
2021/12/02 06:02:48;;;;;;;;;;;22.70;33.70;;;;;;478192;249;1207;-47
2021/12/02 06:04:52;;;;;;;;;;;22.60;33.60;;;;;;478079;249;1053;-46
2021/12/02 06:06:51;;;;;;;;;;;22.70;33.70;;;;;;478118;248;2587;-46
2021/12/02 06:08:53;;;;;;;;;;;22.70;33.70;;;;;;478195;249;1065;-46
2021/12/02 06:10:54;;;;;;;;;;;22.70;33.70;;;;;;478019;249;1688;-47
2021/12/02 06:12:55;;;;;;;;;;;22.70;33.70;;;;;;478188;248;1387;-47
2021/12/02 06:14:57;;;;;;;;;;;22.70;33.70;;;;;;478147;249;2135;-47
2021/12/02 06:16:58;;;;;;;;;;;22.70;33.70;;;;;;478089;249;1389;-46
2021/12/02 06:18:59;;;;;;;;;;;22.70;33.70;;;;;;478205;248;1127;-47
2021/12/02 06:21:01;;;;;;;;;;;22.70;33.70;;;;;;478148;249;1468;-47
2021/12/02 06:23:03;;;;;;;;;;;22.70;33.60;;;;;;478053;248;1239;-47
2021/12/02 06:27:31;;;;;;;;;;;22.70;33.60;;;;;;470987;249;1247;-47
2021/12/02 06:29:32;;;;;;;;;;;22.70;33.60;;;;;;478542;249;1176;-47
2021/12/02 06:31:33;;;;;;;;;;;22.70;33.60;;;;;;478203;249;1288;-46
2021/12/02 06:33:34;;;;;;;;;;;22.70;33.70;;;;;;478072;249;1023;-47
2021/12/02 06:35:36;;;;;;;;;;;22.70;33.60;;;;;;477829;249;2183;-47
2021/12/02 06:37:37;;;;;;;;;;;22.80;33.60;;;;;;477922;248;1253;-47
2021/12/02 06:39:38;;;;;;;;;;;22.80;33.60;;;;;;477901;248;1105;-47
2021/12/02 06:41:40;;;;;;;;;;;22.80;33.70;;;;;;477842;249;1132;-46
2021/12/02 06:43:41;;;;;;;;;;;22.80;33.60;;;;;;477765;249;1290;-47
2021/12/02 06:45:42;;;;;;;;;;;22.80;33.60;;;;;;477720;249;1095;-46
2021/12/02 06:47:44;;;;;;;;;;;22.70;33.80;;;;;;477819;248;1259;-47
2021/12/02 06:49:45;;;;;;;;;;;22.50;33.90;;;;;;477789;249;1208;-46
2021/12/02 06:51:46;;;;;;;;;;;22.30;34.20;;;;;;477567;249;1490;-46
2021/12/02 06:53:49;;;;;;;;;;;22.20;34.60;;;;;;477639;249;1311;-46
2021/12/02 06:55:50;;;;;;;;;;;22.00;34.90;;;;;;477731;249;2104;-46
2021/12/02 06:57:51;;;;;;;;;;;21.90;35.20;;;;;;477797;249;1345;-47
2021/12/02 06:59:53;;;;;;;;;;;21.80;35.30;;;;;;477720;249;1098;-46
2021/12/02 07:01:54;;;;;;;;;;;21.70;35.50;;;;;;477609;249;1352;-46
2021/12/02 07:03:56;;;;;;;;;;;21.70;35.60;;;;;;477823;249;1261;-46
2021/12/02 07:05:57;;;;;;;;;;;21.60;35.60;;;;;;477773;248;1231;-46
2021/12/02 07:07:58;;;;;;;;;;;21.60;35.70;;;;;;477784;248;1166;-46
2021/12/02 07:10:00;;;;;;;;;;;21.50;35.70;;;;;;477644;249;1103;-47
2021/12/02 07:12:01;;;;;;;;;;;21.50;35.90;;;;;;477803;249;1224;-46
2021/12/02 07:14:05;;;;;;;;;;;21.40;35.90;;;;;;477699;249;1128;-46
2021/12/02 07:16:04;;;;;;;;;;;21.40;36.00;;;;;;477463;249;2183;-46
2021/12/02 07:18:12;;;;;;;;;;;21.40;36.10;;;;;;477671;249;1343;-46
2021/12/02 07:20:06;;;;;;;;;;;21.40;36.00;;;;;;477342;248;2346;-46
2021/12/02 07:22:08;;;;;;;;;;;21.30;36.10;;;;;;477647;248;1260;-46
2021/12/02 07:24:09;;;;;;;;;;;21.30;36.10;;;;;;477498;249;1088;-46
2021/12/02 07:26:10;;;;;;;;;;;21.30;36.10;;;;;;477696;249;1337;-46
2021/12/02 07:28:12;;;;;;;;;;;21.30;36.10;;;;;;477657;249;1157;-46
2021/12/02 07:30:13;;;;;;;;;;;21.30;36.10;;;;;;477697;249;1088;-46
2021/12/02 07:32:14;;;;;;;;;;;21.30;36.10;;;;;;477461;249;1406;-46
2021/12/02 07:34:15;;;;;;;;;;;21.30;36.20;;;;;;477583;249;1231;-46
2021/12/02 07:36:17;;;;;;;;;;;21.20;36.20;;;;;;477714;248;2195;-46
2021/12/02 07:38:18;;;;;;;;;;;21.20;36.20;;;;;;477692;249;1311;-47
2021/12/02 07:40:20;;;;;;;;;;;21.20;36.20;;;;;;477726;249;1104;-46
2021/12/02 07:42:21;;;;;;;;;;;21.20;36.20;;;;;;477680;248;1180;-46
2021/12/02 07:44:23;;;;;;;;;;;21.10;36.30;;;;;;477731;249;1213;-46
2021/12/02 07:46:24;;;;;;;;;;;21.20;36.30;;;;;;477776;248;1399;-46
2021/12/02 07:48:25;;;;;;;;;;;21.10;36.30;;;;;;477808;249;1243;-46
2021/12/02 07:50:27;;;;;;;;;;;21.10;36.30;;;;;;477761;249;1125;-47
2021/12/02 07:52:28;;;;;;;;;;;21.10;36.30;;;;;;477499;249;1401;-46
2021/12/02 07:54:32;;;;;;;;;;;21.10;36.30;;;;;;477748;249;1131;-47
2021/12/02 07:56:31;;;;;;;;;;;21.10;36.30;;;;;;477549;249;2190;-46
2021/12/02 07:58:32;;;;;;;;;;;21.10;36.30;;;;;;477843;249;1174;-46
2021/12/02 08:00:33;;;;;;;;;;;21.10;36.30;;;;;;477667;249;1131;-46
2021/12/02 08:02:36;;;;;;;;;;;21.10;36.30;;;;;;477620;249;1254;-46
2021/12/02 08:04:36;;;;;;;;;;;21.10;36.30;;;;;;477540;249;1444;-46
2021/12/02 08:06:37;;;;;;;;;;;21.10;36.40;;;;;;477506;249;1638;-47
2021/12/02 08:08:38;;;;;;;;;;;21.10;36.40;;;;;;477698;249;1204;-46
2021/12/02 08:10:40;;;;;;;;;;;21.00;36.40;;;;;;477731;249;1246;-46
2021/12/02 08:12:46;;;;;;;;;;;21.00;36.40;;;;;;477546;249;1593;-46
2021/12/02 08:14:43;;;;;;;;;;;21.10;36.40;;;;;;477285;249;1283;-46
2021/12/02 08:16:44;;;;;;;;;;;21.00;36.40;;;;;;477679;249;2127;-46
2021/12/02 08:18:46;;;;;;;;;;;21.00;36.40;;;;;;477567;249;1168;-46
2021/12/02 08:20:47;;;;;;;;;;;21.00;36.40;;;;;;477615;249;1107;-46
2021/12/02 08:22:49;;;;;;;;;;;21.00;36.40;;;;;;477892;249;1225;-46
2021/12/02 08:24:50;;;;;;;;;;;21.00;36.40;;;;;;477565;249;1257;-46
2021/12/02 08:26:51;;;;;;;;;;;21.00;36.40;;;;;;477662;249;1186;-46
2021/12/02 08:28:53;;;;;;;;;;;21.00;36.40;;;;;;477816;249;1124;-46
2021/12/02 08:30:54;;;;;;;;;;;20.90;36.40;;;;;;477612;249;1104;-46
2021/12/02 08:32:55;;;;;;;;;;;21.00;36.40;;;;;;477672;249;1121;-46
2021/12/02 08:34:59;;;;;;;;;;;21.00;36.40;;;;;;477636;248;1236;-45
2021/12/02 08:36:58;;;;;;;;;;;21.00;36.40;;;;;;477461;248;2183;-46
2021/12/02 08:39:04;;;;;;;;;;;21.00;36.30;;;;;;477750;248;1194;-46
2021/12/02 08:41:01;;;;;;;;;;;21.00;36.30;;;;;;477372;249;2229;-46
2021/12/02 08:43:02;;;;;;;;;;;21.00;36.40;;;;;;477857;248;1141;-46
2021/12/02 08:45:03;;;;;;;;;;;21.00;36.50;;;;;;477655;249;1172;-46
2021/12/02 08:47:07;;;;;;;;;;;21.00;36.40;;;;;;477586;249;1168;-46
2021/12/02 08:49:06;;;;;;;;;;;21.00;36.30;;;;;;477320;249;2337;-46
2021/12/02 08:51:07;;;;;;;;;;;21.00;36.30;;;;;;477620;248;1337;-46
2021/12/02 08:53:09;;;;;;;;;;;21.10;36.30;;;;;;477613;248;1161;-46
2021/12/02 08:55:10;;;;;;;;;;;21.10;36.30;;;;;;477641;249;1099;-46
2021/12/02 08:57:11;;;;;;;;;;;21.10;36.30;;;;;;477405;249;1340;-46
2021/12/02 08:59:13;;;;;;;;;;;21.10;36.20;;;;;;477349;249;1220;-46
2021/12/02 09:01:14;;;;;;;;;;;21.10;36.20;;;;;;477311;249;2226;-46
2021/12/02 09:03:15;;;;;;;;;;;21.10;36.30;;;;;;477446;249;1271;-46
2021/12/02 09:05:17;;;;;;;;;;;21.10;36.30;;;;;;477518;249;1200;-46
2021/12/02 09:07:18;;;;;;;;;;;21.00;36.20;;;;;;477513;248;1167;-46
2021/12/02 09:09:19;;;;;;;;;;;21.10;36.30;;;;;;477510;249;1220;-46
2021/12/02 09:11:21;;;;;;;;;;;21.10;36.30;;;;;;477378;249;1355;-46
2021/12/02 09:13:23;;;;;;;;;;;21.00;36.30;;;;;;477435;248;1091;-46
2021/12/02 09:15:24;;;;;;;;;;;21.00;36.30;;;;;;477351;249;2186;-46
2021/12/02 09:17:25;;;;;;;;;;;21.10;36.30;;;;;;477416;248;1254;-46
2021/12/02 09:19:26;;;;;;;;;;;21.10;36.30;;;;;;477350;249;1064;-46
2021/12/02 09:21:27;;;;;;;;;;;21.10;36.20;;;;;;477352;249;1216;-46
2021/12/02 09:23:29;;;;;;;;;;;21.10;36.20;;;;;;477459;248;1190;-46
2021/12/02 09:25:30;;;;;;;;;;;21.00;36.20;;;;;;477459;249;1234;-47
2021/12/02 09:27:31;;;;;;;;;;;21.00;36.20;;;;;;477529;248;1098;-46
2021/12/02 09:29:33;;;;;;;;;;;21.00;36.20;;;;;;477555;249;1305;-47
2021/12/02 09:31:35;;;;;;;;;;;21.00;36.20;;;;;;477448;249;1393;-46
2021/12/02 09:33:35;;;;;;;;;;;21.00;36.30;;;;;;477487;249;1258;-46
2021/12/02 09:35:37;;;;;;;;;;;21.00;36.30;;;;;;477498;249;2215;-46
2021/12/02 09:37:38;;;;;;;;;;;21.00;36.30;;;;;;477482;248;1108;-47
2021/12/02 09:39:40;;;;;;;;;;;21.00;36.30;;;;;;477527;248;1235;-47
2021/12/02 09:41:41;;;;;;;;;;;21.00;36.20;;;;;;477486;249;1308;-46
2021/12/02 09:43:42;;;;;;;;;;;20.90;36.20;;;;;;477598;249;1212;-46
2021/12/02 09:45:44;;;;;;;;;;;20.90;36.20;;;;;;477472;249;1124;-46
2021/12/02 09:47:45;;;;;;;;;;;20.90;36.20;;;;;;477538;248;1262;-47
2021/12/02 09:49:46;;;;;;;;;;;20.90;36.20;;;;;;477565;248;1080;-46
2021/12/02 09:51:58;;;;;;;;;;;20.90;36.20;;;;;;477547;248;1117;-46
2021/12/02 09:53:53;;;;;;;;;;;20.90;36.20;;;;;;477020;248;1593;-46
2021/12/02 09:56:02;;;;;;;;;;;20.90;36.20;;;;;;477435;248;2190;-46
2021/12/02 09:57:57;;;;;;;;;;;20.90;36.30;;;;;;476782;249;2202;-46
2021/12/02 09:59:57;;;;;;;;;;;20.90;36.20;;;;;;477300;248;2207;-46
2021/12/02 10:02:00;;;;;;;;;;;20.90;36.20;;;;;;477528;249;1238;-46
2021/12/02 10:04:02;;;;;;;;;;;20.80;36.20;;;;;;477622;248;2164;-47
2021/12/02 10:06:03;;;;;;;;;;;20.80;36.20;;;;;;477452;249;2335;-46
2021/12/02 10:08:06;;;;;;;;;;;20.80;36.20;;;;;;477228;249;2240;-46
2021/12/02 10:10:08;;;;;;;;;;;20.90;36.30;;;;;;477308;249;2703;-46
2021/12/02 10:12:13;;;;;;;;;;;20.90;36.30;;;;;;477228;249;2072;-46
2021/12/02 10:14:09;;;;;;;;;;;20.80;36.20;;;;;;477190;248;1951;-46
2021/12/02 10:16:13;;;;;;;;;;;20.80;36.20;;;;;;477385;248;2183;-46
2021/12/02 10:18:12;;;;;;;;;;;20.80;36.20;;;;;;477397;248;2157;-46
2021/12/02 10:20:24;;;;;;;;;;;20.80;36.20;;;;;;477404;249;1138;-46
2021/12/02 10:22:23;;;;;;;;;;;20.80;36.10;;;;;;477319;248;2170;-46
2021/12/02 10:24:24;;;;;;;;;;;20.80;36.10;;;;;;477647;249;2309;-46
2021/12/02 10:26:25;;;;;;;;;;;20.80;36.20;;;;;;477548;249;1938;-46
2021/12/02 10:28:26;;;;;;;;;;;20.80;36.20;;;;;;477167;249;1119;-46
2021/12/02 10:30:28;;;;;;;;;;;20.70;36.20;;;;;;477116;249;1106;-46
2021/12/02 10:32:31;;;;;;;;;;;20.70;36.20;;;;;;477504;248;1175;-46
2021/12/02 10:34:30;;;;;;;;;;;20.80;36.20;;;;;;477327;248;2342;-46
2021/12/02 10:36:32;;;;;;;;;;;20.70;36.10;;;;;;477509;248;2179;-46
2021/12/02 10:38:33;;;;;;;;;;;20.80;36.20;;;;;;477613;249;1213;-46
2021/12/02 10:40:36;;;;;;;;;;;20.80;36.20;;;;;;477509;249;1221;-46
2021/12/02 10:42:37;;;;;;;;;;;20.80;36.10;;;;;;477335;248;1791;-46
2021/12/02 10:44:39;;;;;;;;;;;20.70;36.00;;;;;;477304;249;2243;-46
2021/12/02 10:46:38;;;;;;;;;;;20.80;36.10;;;;;;477358;249;2137;-46
2021/12/02 10:48:40;;;;;;;;;;;20.80;36.10;;;;;;477445;249;1068;-46
2021/12/02 10:50:41;;;;;;;;;;;20.80;36.10;;;;;;477515;249;1083;-46
2021/12/02 10:52:42;;;;;;;;;;;20.80;36.10;;;;;;477609;249;1111;-47
2021/12/02 10:54:44;;;;;;;;;;;20.70;36.10;;;;;;477707;249;1158;-46
2021/12/02 10:56:46;;;;;;;;;;;20.70;36.10;;;;;;477581;249;2195;-47
2021/12/02 10:58:46;;;;;;;;;;;20.70;36.20;;;;;;477598;248;2495;-46
2021/12/02 11:00:49;;;;;;;;;;;20.70;36.10;;;;;;477650;249;1247;-46
2021/12/02 11:02:49;;;;;;;;;;;20.70;36.10;;;;;;477754;249;1341;-45
2021/12/02 11:04:51;;;;;;;;;;;20.70;36.10;;;;;;477483;249;1111;-46
2021/12/02 11:06:59;;;;;;;;;;;20.70;36.00;;;;;;477461;249;1266;-46
2021/12/02 11:08:53;;;;;;;;;;;20.70;36.10;;;;;;477226;248;1355;-46
2021/12/02 11:10:54;;;;;;;;;;;20.70;36.10;;;;;;477473;249;1300;-46
2021/12/02 11:12:56;;;;;;;;;;;20.70;36.10;;;;;;477539;248;1089;-46
2021/12/02 11:14:57;;;;;;;;;;;20.70;36.10;;;;;;477488;248;1063;-46
2021/12/02 11:16:58;;;;;;;;;;;20.70;36.10;;;;;;477505;249;2198;-46
2021/12/02 11:19:00;;;;;;;;;;;20.70;36.10;;;;;;477476;249;1247;-46
2021/12/02 11:21:01;;;;;;;;;;;20.60;36.10;;;;;;477489;249;1151;-46
2021/12/02 11:23:02;;;;;;;;;;;20.70;36.10;;;;;;477507;248;1058;-46
2021/12/02 11:25:04;;;;;;;;;;;20.70;36.10;;;;;;477597;249;1232;-46
2021/12/02 11:27:05;;;;;;;;;;;20.60;36.20;;;;;;477363;249;1308;-46
2021/12/02 11:29:06;;;;;;;;;;;20.70;36.20;;;;;;477517;249;1302;-46
2021/12/02 11:31:08;;;;;;;;;;;20.70;36.20;;;;;;477363;249;1261;-46
2021/12/02 11:33:09;;;;;;;;;;;20.70;36.30;;;;;;477293;249;1245;-46
2021/12/02 11:35:12;;;;;;;;;;;20.60;36.50;;;;;;477408;248;1205;-46
2021/12/02 11:37:12;;;;;;;;;;;20.60;36.60;;;;;;477535;249;2186;-46
2021/12/02 11:39:13;;;;;;;;;;;20.70;36.60;;;;;;477424;249;1178;-46
2021/12/02 11:41:17;;;;;;;;;;;20.70;36.70;;;;;;477506;249;1344;-46
2021/12/02 11:43:16;;;;;;;;;;;20.70;36.80;;;;;;477351;249;2403;-46
2021/12/02 11:45:17;;;;;;;;;;;20.70;36.90;;;;;;477566;249;1105;-46
2021/12/02 11:47:19;;;;;;;;;;;20.70;37.00;;;;;;477669;248;1417;-47
2021/12/02 11:49:20;;;;;;;;;;;20.70;37.10;;;;;;477505;249;1326;-46
2021/12/02 11:51:21;;;;;;;;;;;20.80;37.20;;;;;;477513;249;1323;-46
2021/12/02 11:53:23;;;;;;;;;;;20.80;37.30;;;;;;477438;249;1206;-46
2021/12/02 11:55:24;;;;;;;;;;;20.80;37.30;;;;;;477538;249;1853;-47
2021/12/02 11:57:25;;;;;;;;;;;20.80;37.60;;;;;;477478;249;2134;-46
2021/12/02 11:59:27;;;;;;;;;;;20.80;37.80;;;;;;477567;248;1119;-46
2021/12/02 12:01:28;;;;;;;;;;;20.80;37.80;;;;;;477377;249;1411;-46
2021/12/02 12:03:29;;;;;;;;;;;20.80;38.00;;;;;;477692;249;1303;-46